sensor_id;sensor_type;location;lat;lon;timestamp;temperature;humidity
13496;DHT22;6820;49.374;8.452;2023-07-29T00:03:39;20.04;99.99
13496;DHT22;6820;49.374;8.452;2023-07-29T00:07:40;20.02;99.99
13496;DHT22;6820;49.374;8.452;2023-07-29T00:11:42;20.02;99.99
13496;DHT22;6820;49.374;8.452;2023-07-29T00:15:43;20.01;99.99
13496;DHT22;6820;49.374;8.452;2023-07-29T00:19:45;20.01;99.99
13496;DHT22;6820;49.374;8.452;2023-07-29T00:23:47;20.00;99.99
13496;DHT22;6820;49.374;8.452;2023-07-29T00:27:49;19.98;99.99
13496;DHT22;6820;49.374;8.452;2023-07-29T00:31:50;19.95;99.99
13496;DHT22;6820;49.374;8.452;2023-07-29T00:35:54;19.95;99.99
13496;DHT22;6820;49.374;8.452;2023-07-29T00:39:56;19.94;99.99
13496;DHT22;6820;49.374;8.452;2023-07-29T00:43:58;19.90;99.99
13496;DHT22;6820;49.374;8.452;2023-07-29T00:48:00;19.89;99.99
13496;DHT22;6820;49.374;8.452;2023-07-29T00:52:03;19.87;99.99
13496;DHT22;6820;49.374;8.452;2023-07-29T00:56:05;19.83;99.99
13496;DHT22;6820;49.374;8.452;2023-07-29T01:00:08;19.80;99.99
13496;DHT22;6820;49.374;8.452;2023-07-29T01:04:10;19.83;99.99
13496;DHT22;6820;49.374;8.452;2023-07-29T01:08:18;19.85;99.99
13496;DHT22;6820;49.374;8.452;2023-07-29T01:12:27;19.87;99.99
13496;DHT22;6820;49.374;8.452;2023-07-29T01:16:42;19.86;99.99
13496;DHT22;6820;49.374;8.452;2023-07-29T01:20:47;19.86;99.99
13496;DHT22;6820;49.374;8.452;2023-07-29T01:24:49;19.86;99.99
13496;DHT22;6820;49.374;8.452;2023-07-29T01:28:51;19.86;99.99
13496;DHT22;6820;49.374;8.452;2023-07-29T01:32:54;19.82;99.99
13496;DHT22;6820;49.374;8.452;2023-07-29T01:37:01;19.82;99.99
13496;DHT22;6820;49.374;8.452;2023-07-29T01:41:07;19.79;99.99
13496;DHT22;6820;49.374;8.452;2023-07-29T01:45:10;19.78;99.99
13496;DHT22;6820;49.374;8.452;2023-07-29T01:49:11;19.75;99.99
13496;DHT22;6820;49.374;8.452;2023-07-29T01:53:13;19.72;99.99
13496;DHT22;6820;49.374;8.452;2023-07-29T01:57:15;19.71;99.99
13496;DHT22;6820;49.374;8.452;2023-07-29T02:01:16;19.67;99.99
13496;DHT22;6820;49.374;8.452;2023-07-29T02:05:19;19.65;99.99
13496;DHT22;6820;49.374;8.452;2023-07-29T02:09:21;19.61;99.99
13496;DHT22;6820;49.374;8.452;2023-07-29T02:13:22;19.57;99.99
13496;DHT22;6820;49.374;8.452;2023-07-29T02:17:24;19.57;99.99
13496;DHT22;6820;49.374;8.452;2023-07-29T02:21:27;19.57;99.99
13496;DHT22;6820;49.374;8.452;2023-07-29T02:25:29;19.52;99.99
13496;DHT22;6820;49.374;8.452;2023-07-29T02:29:30;19.49;99.99
13496;DHT22;6820;49.374;8.452;2023-07-29T02:33:34;19.49;99.99
13496;DHT22;6820;49.374;8.452;2023-07-29T02:37:36;19.49;99.99
13496;DHT22;6820;49.374;8.452;2023-07-29T02:41:37;19.50;99.99
13496;DHT22;6820;49.374;8.452;2023-07-29T02:45:39;19.49;99.99
13496;DHT22;6820;49.374;8.452;2023-07-29T02:49:41;19.50;99.99
13496;DHT22;6820;49.374;8.452;2023-07-29T02:53:42;19.50;99.99
13496;DHT22;6820;49.374;8.452;2023-07-29T02:57:44;19.49;99.99
13496;DHT22;6820;49.374;8.452;2023-07-29T03:01:46;19.49;99.99
13496;DHT22;6820;49.374;8.452;2023-07-29T03:05:48;19.49;99.99
13496;DHT22;6820;49.374;8.452;2023-07-29T03:09:50;19.52;99.99
13496;DHT22;6820;49.374;8.452;2023-07-29T03:13:51;19.52;99.99
13496;DHT22;6820;49.374;8.452;2023-07-29T03:17:53;19.50;99.99
13496;DHT22;6820;49.374;8.452;2023-07-29T03:21:55;19.52;99.99
13496;DHT22;6820;49.374;8.452;2023-07-29T03:25:57;19.52;99.99
13496;DHT22;6820;49.374;8.452;2023-07-29T03:30:00;19.52;99.99
13496;DHT22;6820;49.374;8.452;2023-07-29T03:34:02;19.53;99.99
13496;DHT22;6820;49.374;8.452;2023-07-29T03:38:04;19.53;99.99
13496;DHT22;6820;49.374;8.452;2023-07-29T03:42:06;19.57;99.99
13496;DHT22;6820;49.374;8.452;2023-07-29T03:46:07;19.57;99.99
13496;DHT22;6820;49.374;8.452;2023-07-29T03:50:13;19.57;99.99
13496;DHT22;6820;49.374;8.452;2023-07-29T03:54:15;19.52;99.99
13496;DHT22;6820;49.374;8.452;2023-07-29T03:58:17;19.53;99.99
13496;DHT22;6820;49.374;8.452;2023-07-29T04:02:19;19.53;99.99
13496;DHT22;6820;49.374;8.452;2023-07-29T04:06:21;19.52;99.99
13496;DHT22;6820;49.374;8.452;2023-07-29T04:10:24;19.53;99.99
13496;DHT22;6820;49.374;8.452;2023-07-29T04:14:26;19.55;99.99
13496;DHT22;6820;49.374;8.452;2023-07-29T04:18:27;19.57;99.99
13496;DHT22;6820;49.374;8.452;2023-07-29T04:22:29;19.58;99.99
13496;DHT22;6820;49.374;8.452;2023-07-29T04:26:31;19.61;99.99
13496;DHT22;6820;49.374;8.452;2023-07-29T04:30:32;19.61;99.99
13496;DHT22;6820;49.374;8.452;2023-07-29T04:34:34;19.61;99.99
13496;DHT22;6820;49.374;8.452;2023-07-29T04:38:37;19.62;99.99
13496;DHT22;6820;49.374;8.452;2023-07-29T04:42:39;19.62;99.99
13496;DHT22;6820;49.374;8.452;2023-07-29T04:46:42;19.65;99.99
13496;DHT22;6820;49.374;8.452;2023-07-29T04:50:44;19.67;99.99
13496;DHT22;6820;49.374;8.452;2023-07-29T04:54:46;19.65;99.99
13496;DHT22;6820;49.374;8.452;2023-07-29T04:58:48;19.65;99.99
13496;DHT22;6820;49.374;8.452;2023-07-29T05:02:49;19.67;99.99
13496;DHT22;6820;49.374;8.452;2023-07-29T05:06:51;19.67;99.99
13496;DHT22;6820;49.374;8.452;2023-07-29T05:10:53;19.67;99.99
13496;DHT22;6820;49.374;8.452;2023-07-29T05:14:55;19.68;99.99
13496;DHT22;6820;49.374;8.452;2023-07-29T05:18:57;19.70;99.99
13496;DHT22;6820;49.374;8.452;2023-07-29T05:22:58;19.72;99.99
13496;DHT22;6820;49.374;8.452;2023-07-29T05:27:00;19.71;99.99
13496;DHT22;6820;49.374;8.452;2023-07-29T05:31:02;19.71;99.99
13496;DHT22;6820;49.374;8.452;2023-07-29T05:35:04;19.71;99.99
13496;DHT22;6820;49.374;8.452;2023-07-29T05:39:06;19.71;99.99
13496;DHT22;6820;49.374;8.452;2023-07-29T05:43:08;19.75;99.99
13496;DHT22;6820;49.374;8.452;2023-07-29T05:47:10;19.82;99.99
13496;DHT22;6820;49.374;8.452;2023-07-29T05:51:12;19.87;99.99
13496;DHT22;6820;49.374;8.452;2023-07-29T05:55:14;19.94;99.99
13496;DHT22;6820;49.374;8.452;2023-07-29T05:59:15;20.02;99.99
13496;DHT22;6820;49.374;8.452;2023-07-29T06:03:18;20.16;99.99
13496;DHT22;6820;49.374;8.452;2023-07-29T06:07:20;20.27;99.99
13496;DHT22;6820;49.374;8.452;2023-07-29T06:11:21;20.38;99.99
13496;DHT22;6820;49.374;8.452;2023-07-29T06:15:23;20.53;99.99
13496;DHT22;6820;49.374;8.452;2023-07-29T06:19:25;20.63;99.99
13496;DHT22;6820;49.374;8.452;2023-07-29T06:23:26;20.75;99.99
13496;DHT22;6820;49.374;8.452;2023-07-29T06:27:28;20.83;99.99
13496;DHT22;6820;49.374;8.452;2023-07-29T06:31:30;20.91;99.99
13496;DHT22;6820;49.374;8.452;2023-07-29T06:35:33;20.93;99.99
13496;DHT22;6820;49.374;8.452;2023-07-29T06:39:35;21.00;99.99
13496;DHT22;6820;49.374;8.452;2023-07-29T06:43:37;21.08;99.99
13496;DHT22;6820;49.374;8.452;2023-07-29T06:47:38;21.15;99.99
13496;DHT22;6820;49.374;8.452;2023-07-29T06:51:40;21.21;99.99
13496;DHT22;6820;49.374;8.452;2023-07-29T06:55:42;21.30;99.99
13496;DHT22;6820;49.374;8.452;2023-07-29T06:59:44;21.37;99.99
13496;DHT22;6820;49.374;8.452;2023-07-29T07:03:46;21.51;99.99
13496;DHT22;6820;49.374;8.452;2023-07-29T07:07:48;21.61;99.99
13496;DHT22;6820;49.374;8.452;2023-07-29T07:11:49;21.66;99.99
13496;DHT22;6820;49.374;8.452;2023-07-29T07:15:53;21.73;99.99
13496;DHT22;6820;49.374;8.452;2023-07-29T07:19:55;21.82;99.99
13496;DHT22;6820;49.374;8.452;2023-07-29T07:23:57;21.98;99.99
13496;DHT22;6820;49.374;8.452;2023-07-29T07:27:59;22.21;99.99
13496;DHT22;6820;49.374;8.452;2023-07-29T07:32:01;22.41;99.99
13496;DHT22;6820;49.374;8.452;2023-07-29T07:36:03;22.44;99.99
13496;DHT22;6820;49.374;8.452;2023-07-29T07:40:05;22.41;99.99
13496;DHT22;6820;49.374;8.452;2023-07-29T07:44:07;22.52;99.99
13496;DHT22;6820;49.374;8.452;2023-07-29T07:48:09;22.69;99.99
13496;DHT22;6820;49.374;8.452;2023-07-29T07:52:13;22.72;99.99
13496;DHT22;6820;49.374;8.452;2023-07-29T07:56:14;22.64;99.99
13496;DHT22;6820;49.374;8.452;2023-07-29T08:00:16;22.61;99.99
13496;DHT22;6820;49.374;8.452;2023-07-29T08:04:20;22.52;99.99
13496;DHT22;6820;49.374;8.452;2023-07-29T08:08:22;22.61;99.99
13496;DHT22;6820;49.374;8.452;2023-07-29T08:12:23;22.56;99.99
13496;DHT22;6820;49.374;8.452;2023-07-29T08:16:25;22.45;99.99
13496;DHT22;6820;49.374;8.452;2023-07-29T08:20:27;22.49;99.99
13496;DHT22;6820;49.374;8.452;2023-07-29T08:24:29;22.52;99.99
13496;DHT22;6820;49.374;8.452;2023-07-29T08:32:39;22.78;99.99
13496;DHT22;6820;49.374;8.452;2023-07-29T08:36:40;22.82;99.99
13496;DHT22;6820;49.374;8.452;2023-07-29T08:40:43;22.85;99.99
13496;DHT22;6820;49.374;8.452;2023-07-29T08:44:47;22.88;99.99
13496;DHT22;6820;49.374;8.452;2023-07-29T08:48:50;22.84;99.99
13496;DHT22;6820;49.374;8.452;2023-07-29T08:52:52;22.72;99.99
13496;DHT22;6820;49.374;8.452;2023-07-29T08:56:55;22.70;99.99
13496;DHT22;6820;49.374;8.452;2023-07-29T09:00:57;22.89;99.99
13496;DHT22;6820;49.374;8.452;2023-07-29T09:04:59;23.06;99.99
13496;DHT22;6820;49.374;8.452;2023-07-29T09:09:00;23.23;99.99
13496;DHT22;6820;49.374;8.452;2023-07-29T09:13:03;23.49;99.99
13496;DHT22;6820;49.374;8.452;2023-07-29T09:17:08;23.63;99.99
13496;DHT22;6820;49.374;8.452;2023-07-29T09:21:11;23.72;99.99
13496;DHT22;6820;49.374;8.452;2023-07-29T09:25:12;23.67;99.99
13496;DHT22;6820;49.374;8.452;2023-07-29T09:29:21;23.71;99.99
13496;DHT22;6820;49.374;8.452;2023-07-29T09:33:25;23.87;99.99
13496;DHT22;6820;49.374;8.452;2023-07-29T09:37:28;23.92;99.99
13496;DHT22;6820;49.374;8.452;2023-07-29T09:41:32;23.94;99.99
13496;DHT22;6820;49.374;8.452;2023-07-29T09:45:34;24.08;99.99
13496;DHT22;6820;49.374;8.452;2023-07-29T09:49:36;24.26;99.99
13496;DHT22;6820;49.374;8.452;2023-07-29T09:53:39;24.49;99.99
13496;DHT22;6820;49.374;8.452;2023-07-29T09:57:44;24.70;99.99
13496;DHT22;6820;49.374;8.452;2023-07-29T10:01:46;24.89;99.99
13496;DHT22;6820;49.374;8.452;2023-07-29T10:05:48;24.92;99.99
13496;DHT22;6820;49.374;8.452;2023-07-29T10:09:51;24.83;99.99
13496;DHT22;6820;49.374;8.452;2023-07-29T10:13:53;24.83;99.99
13496;DHT22;6820;49.374;8.452;2023-07-29T10:18:09;24.92;99.99
13496;DHT22;6820;49.374;8.452;2023-07-29T10:22:10;24.94;99.99
13496;DHT22;6820;49.374;8.452;2023-07-29T10:26:14;24.97;99.99
13496;DHT22;6820;49.374;8.452;2023-07-29T10:30:19;25.05;99.99
13496;DHT22;6820;49.374;8.452;2023-07-29T10:34:20;25.31;99.99
13496;DHT22;6820;49.374;8.452;2023-07-29T10:38:23;25.48;99.99
13496;DHT22;6820;49.374;8.452;2023-07-29T10:42:25;25.54;99.99
13496;DHT22;6820;49.374;8.452;2023-07-29T10:46:27;25.66;99.99
13496;DHT22;6820;49.374;8.452;2023-07-29T10:50:29;25.72;99.99
13496;DHT22;6820;49.374;8.452;2023-07-29T10:54:30;25.64;99.99
13496;DHT22;6820;49.374;8.452;2023-07-29T10:58:44;25.60;99.99
13496;DHT22;6820;49.374;8.452;2023-07-29T11:02:56;25.74;99.99
13496;DHT22;6820;49.374;8.452;2023-07-29T11:11:12;26.00;99.99
13496;DHT22;6820;49.374;8.452;2023-07-29T11:15:17;26.16;99.99
13496;DHT22;6820;49.374;8.452;2023-07-29T11:19:29;26.03;99.99
13496;DHT22;6820;49.374;8.452;2023-07-29T11:23:34;26.08;99.99
13496;DHT22;6820;49.374;8.452;2023-07-29T11:27:38;26.11;99.99
13496;DHT22;6820;49.374;8.452;2023-07-29T11:31:40;26.23;99.99
13496;DHT22;6820;49.374;8.452;2023-07-29T11:35:42;26.36;99.99
13496;DHT22;6820;49.374;8.452;2023-07-29T11:39:43;26.42;99.99
13496;DHT22;6820;49.374;8.452;2023-07-29T11:43:46;26.49;99.99
13496;DHT22;6820;49.374;8.452;2023-07-29T11:47:48;26.54;99.99
13496;DHT22;6820;49.374;8.452;2023-07-29T11:51:49;26.64;99.99
13496;DHT22;6820;49.374;8.452;2023-07-29T11:55:51;26.76;99.99
13496;DHT22;6820;49.374;8.452;2023-07-29T11:59:54;26.84;99.99
13496;DHT22;6820;49.374;8.452;2023-07-29T12:03:56;26.97;99.99
13496;DHT22;6820;49.374;8.452;2023-07-29T12:07:58;27.11;99.99
13496;DHT22;6820;49.374;8.452;2023-07-29T12:12:01;27.27;99.99
13496;DHT22;6820;49.374;8.452;2023-07-29T12:16:04;27.31;99.99
13496;DHT22;6820;49.374;8.452;2023-07-29T12:20:07;27.45;99.99
13496;DHT22;6820;49.374;8.452;2023-07-29T12:24:13;27.34;99.99
13496;DHT22;6820;49.374;8.452;2023-07-29T12:28:15;27.30;99.99
13496;DHT22;6820;49.374;8.452;2023-07-29T12:32:17;27.59;99.99
13496;DHT22;6820;49.374;8.452;2023-07-29T12:36:19;27.83;99.99
13496;DHT22;6820;49.374;8.452;2023-07-29T12:40:24;27.91;99.99
13496;DHT22;6820;49.374;8.452;2023-07-29T12:44:32;28.01;99.99
13496;DHT22;6820;49.374;8.452;2023-07-29T12:48:35;27.99;99.99
13496;DHT22;6820;49.374;8.452;2023-07-29T12:52:37;28.23;99.99
13496;DHT22;6820;49.374;8.452;2023-07-29T12:56:39;28.24;99.99
13496;DHT22;6820;49.374;8.452;2023-07-29T13:00:40;28.06;99.99
13496;DHT22;6820;49.374;8.452;2023-07-29T13:04:42;28.20;99.99
13496;DHT22;6820;49.374;8.452;2023-07-29T13:08:44;28.27;99.99
13496;DHT22;6820;49.374;8.452;2023-07-29T13:12:46;28.38;99.99
13496;DHT22;6820;49.374;8.452;2023-07-29T13:16:47;28.09;99.99
13496;DHT22;6820;49.374;8.452;2023-07-29T13:20:49;28.08;99.99
13496;DHT22;6820;49.374;8.452;2023-07-29T13:24:51;28.03;99.99
13496;DHT22;6820;49.374;8.452;2023-07-29T13:28:52;28.57;99.99
13496;DHT22;6820;49.374;8.452;2023-07-29T13:32:54;28.72;99.99
13496;DHT22;6820;49.374;8.452;2023-07-29T13:36:56;28.76;99.99
13496;DHT22;6820;49.374;8.452;2023-07-29T13:40:58;28.50;99.99
13496;DHT22;6820;49.374;8.452;2023-07-29T13:45:00;28.35;99.99
13496;DHT22;6820;49.374;8.452;2023-07-29T13:49:02;28.65;99.99
13496;DHT22;6820;49.374;8.452;2023-07-29T13:53:04;29.02;99.99
13496;DHT22;6820;49.374;8.452;2023-07-29T13:57:06;29.25;99.99
13496;DHT22;6820;49.374;8.452;2023-07-29T14:01:08;29.27;99.99
13496;DHT22;6820;49.374;8.452;2023-07-29T14:05:09;29.37;99.99
13496;DHT22;6820;49.374;8.452;2023-07-29T14:09:13;29.84;99.99
13496;DHT22;6820;49.374;8.452;2023-07-29T14:13:14;29.29;99.99
13496;DHT22;6820;49.374;8.452;2023-07-29T14:17:16;29.21;99.99
13496;DHT22;6820;49.374;8.452;2023-07-29T14:21:18;29.26;99.99
13496;DHT22;6820;49.374;8.452;2023-07-29T14:25:19;29.57;99.99
13496;DHT22;6820;49.374;8.452;2023-07-29T14:29:21;30.13;99.99
13496;DHT22;6820;49.374;8.452;2023-07-29T14:33:22;29.70;99.99
13496;DHT22;6820;49.374;8.452;2023-07-29T14:37:24;30.26;99.99
13496;DHT22;6820;49.374;8.452;2023-07-29T14:41:26;30.37;99.99
13496;DHT22;6820;49.374;8.452;2023-07-29T14:45:28;30.59;99.99
13496;DHT22;6820;49.374;8.452;2023-07-29T14:49:29;31.01;99.99
13496;DHT22;6820;49.374;8.452;2023-07-29T14:53:31;31.25;99.99
13496;DHT22;6820;49.374;8.452;2023-07-29T14:57:33;30.85;99.99
13496;DHT22;6820;49.374;8.452;2023-07-29T15:01:34;30.64;99.99
13496;DHT22;6820;49.374;8.452;2023-07-29T15:05:36;30.01;99.99
13496;DHT22;6820;49.374;8.452;2023-07-29T15:09:38;29.92;99.99
13496;DHT22;6820;49.374;8.452;2023-07-29T15:13:39;30.01;99.99
13496;DHT22;6820;49.374;8.452;2023-07-29T15:17:41;29.85;99.99
13496;DHT22;6820;49.374;8.452;2023-07-29T15:21:42;29.88;99.99
13496;DHT22;6820;49.374;8.452;2023-07-29T15:25:44;30.18;99.99
13496;DHT22;6820;49.374;8.452;2023-07-29T15:29:46;30.56;99.99
13496;DHT22;6820;49.374;8.452;2023-07-29T15:33:48;30.70;99.99
13496;DHT22;6820;49.374;8.452;2023-07-29T15:37:50;29.95;99.99
13496;DHT22;6820;49.374;8.452;2023-07-29T15:41:51;29.64;99.99
13496;DHT22;6820;49.374;8.452;2023-07-29T15:45:53;29.66;99.99
13496;DHT22;6820;49.374;8.452;2023-07-29T15:49:55;29.32;99.99
13496;DHT22;6820;49.374;8.452;2023-07-29T15:53:56;28.98;99.99
13496;DHT22;6820;49.374;8.452;2023-07-29T15:57:58;28.64;99.99
13496;DHT22;6820;49.374;8.452;2023-07-29T16:02:00;28.45;99.99
13496;DHT22;6820;49.374;8.452;2023-07-29T16:06:02;28.36;99.99
13496;DHT22;6820;49.374;8.452;2023-07-29T16:10:04;28.43;99.99
13496;DHT22;6820;49.374;8.452;2023-07-29T16:14:07;28.60;99.99
13496;DHT22;6820;49.374;8.452;2023-07-29T16:18:09;28.52;99.99
13496;DHT22;6820;49.374;8.452;2023-07-29T16:22:10;28.17;99.99
13496;DHT22;6820;49.374;8.452;2023-07-29T16:26:12;27.90;99.99
13496;DHT22;6820;49.374;8.452;2023-07-29T16:30:14;27.15;99.99
13496;DHT22;6820;49.374;8.452;2023-07-29T16:34:15;26.66;99.99
13496;DHT22;6820;49.374;8.452;2023-07-29T16:38:17;26.32;99.99
13496;DHT22;6820;49.374;8.452;2023-07-29T16:42:20;25.76;99.99
13496;DHT22;6820;49.374;8.452;2023-07-29T16:46:22;24.53;99.99
13496;DHT22;6820;49.374;8.452;2023-07-29T16:50:23;23.93;99.99
13496;DHT22;6820;49.374;8.452;2023-07-29T16:54:25;23.96;99.99
13496;DHT22;6820;49.374;8.452;2023-07-29T16:58:27;24.36;99.99
13496;DHT22;6820;49.374;8.452;2023-07-29T17:02:28;25.14;99.99
13496;DHT22;6820;49.374;8.452;2023-07-29T17:06:30;25.59;99.99
13496;DHT22;6820;49.374;8.452;2023-07-29T17:10:32;25.71;99.99
13496;DHT22;6820;49.374;8.452;2023-07-29T17:14:33;25.59;99.99
13496;DHT22;6820;49.374;8.452;2023-07-29T17:18:35;25.41;99.99
13496;DHT22;6820;49.374;8.452;2023-07-29T17:22:38;25.31;99.99
13496;DHT22;6820;49.374;8.452;2023-07-29T17:26:39;25.45;99.99
13496;DHT22;6820;49.374;8.452;2023-07-29T17:30:41;25.54;99.99
13496;DHT22;6820;49.374;8.452;2023-07-29T17:34:43;25.44;99.99
13496;DHT22;6820;49.374;8.452;2023-07-29T17:38:44;25.11;99.99
13496;DHT22;6820;49.374;8.452;2023-07-29T17:42:46;25.02;99.99
13496;DHT22;6820;49.374;8.452;2023-07-29T17:46:47;25.04;99.99
13496;DHT22;6820;49.374;8.452;2023-07-29T17:50:49;24.98;99.99
13496;DHT22;6820;49.374;8.452;2023-07-29T17:54:51;24.90;99.99
13496;DHT22;6820;49.374;8.452;2023-07-29T17:58:52;24.87;99.99
13496;DHT22;6820;49.374;8.452;2023-07-29T18:02:54;24.83;99.99
13496;DHT22;6820;49.374;8.452;2023-07-29T18:06:57;24.77;99.99
13496;DHT22;6820;49.374;8.452;2023-07-29T18:10:59;24.67;99.99
13496;DHT22;6820;49.374;8.452;2023-07-29T18:15:00;24.60;99.99
13496;DHT22;6820;49.374;8.452;2023-07-29T18:19:02;24.55;99.99
13496;DHT22;6820;49.374;8.452;2023-07-29T18:23:04;24.49;99.99
13496;DHT22;6820;49.374;8.452;2023-07-29T18:27:06;24.45;99.99
13496;DHT22;6820;49.374;8.452;2023-07-29T18:31:09;24.41;99.99
13496;DHT22;6820;49.374;8.452;2023-07-29T18:35:12;24.36;99.99
13496;DHT22;6820;49.374;8.452;2023-07-29T18:39:18;24.29;99.99
13496;DHT22;6820;49.374;8.452;2023-07-29T18:43:20;24.23;99.99
13496;DHT22;6820;49.374;8.452;2023-07-29T18:47:22;24.16;99.99
13496;DHT22;6820;49.374;8.452;2023-07-29T18:51:24;24.09;99.99
13496;DHT22;6820;49.374;8.452;2023-07-29T18:55:26;24.00;99.99
13496;DHT22;6820;49.374;8.452;2023-07-29T18:59:30;23.96;99.99
13496;DHT22;6820;49.374;8.452;2023-07-29T19:03:32;23.92;99.99
13496;DHT22;6820;49.374;8.452;2023-07-29T19:07:34;23.87;99.99
13496;DHT22;6820;49.374;8.452;2023-07-29T19:11:36;23.79;99.99
13496;DHT22;6820;49.374;8.452;2023-07-29T19:15:38;23.75;99.99
13496;DHT22;6820;49.374;8.452;2023-07-29T19:19:40;23.71;99.99
13496;DHT22;6820;49.374;8.452;2023-07-29T19:23:42;23.64;99.99
13496;DHT22;6820;49.374;8.452;2023-07-29T19:27:44;23.59;99.99
13496;DHT22;6820;49.374;8.452;2023-07-29T19:31:46;23.57;99.99
13496;DHT22;6820;49.374;8.452;2023-07-29T19:35:52;23.56;99.99
13496;DHT22;6820;49.374;8.452;2023-07-29T19:39:56;23.53;99.99
13496;DHT22;6820;49.374;8.452;2023-07-29T19:43:58;23.49;99.99
13496;DHT22;6820;49.374;8.452;2023-07-29T19:48:13;23.47;99.99
13496;DHT22;6820;49.374;8.452;2023-07-29T19:52:14;23.42;99.99
13496;DHT22;6820;49.374;8.452;2023-07-29T19:56:19;23.35;99.99
13496;DHT22;6820;49.374;8.452;2023-07-29T20:00:20;23.37;99.99
13496;DHT22;6820;49.374;8.452;2023-07-29T20:04:22;23.35;99.99
13496;DHT22;6820;49.374;8.452;2023-07-29T20:08:24;23.34;99.99
13496;DHT22;6820;49.374;8.452;2023-07-29T20:12:26;23.37;99.99
13496;DHT22;6820;49.374;8.452;2023-07-29T20:16:27;23.32;99.99
13496;DHT22;6820;49.374;8.452;2023-07-29T20:20:29;23.29;99.99
13496;DHT22;6820;49.374;8.452;2023-07-29T20:24:31;23.29;99.99
13496;DHT22;6820;49.374;8.452;2023-07-29T20:28:33;23.26;99.99
13496;DHT22;6820;49.374;8.452;2023-07-29T20:32:35;23.25;99.99
13496;DHT22;6820;49.374;8.452;2023-07-29T20:36:38;23.29;99.99
13496;DHT22;6820;49.374;8.452;2023-07-29T20:40:39;23.31;99.99
13496;DHT22;6820;49.374;8.452;2023-07-29T20:44:49;23.26;99.99
13496;DHT22;6820;49.374;8.452;2023-07-29T20:48:51;23.26;99.99
13496;DHT22;6820;49.374;8.452;2023-07-29T20:52:53;23.22;99.99
13496;DHT22;6820;49.374;8.452;2023-07-29T20:56:54;23.21;99.99
13496;DHT22;6820;49.374;8.452;2023-07-29T21:00:56;23.19;99.99
13496;DHT22;6820;49.374;8.452;2023-07-29T21:04:58;23.16;99.99
13496;DHT22;6820;49.374;8.452;2023-07-29T21:08:59;23.14;99.99
13496;DHT22;6820;49.374;8.452;2023-07-29T21:13:01;23.12;99.99
13496;DHT22;6820;49.374;8.452;2023-07-29T21:17:03;23.14;99.99
13496;DHT22;6820;49.374;8.452;2023-07-29T21:21:05;23.14;99.99
13496;DHT22;6820;49.374;8.452;2023-07-29T21:25:06;23.09;99.99
13496;DHT22;6820;49.374;8.452;2023-07-29T21:29:08;23.03;99.99
13496;DHT22;6820;49.374;8.452;2023-07-29T21:33:10;23.00;99.99
13496;DHT22;6820;49.374;8.452;2023-07-29T21:37:11;22.99;99.99
13496;DHT22;6820;49.374;8.452;2023-07-29T21:41:30;22.94;99.99
13496;DHT22;6820;49.374;8.452;2023-07-29T21:45:32;22.86;99.99
13496;DHT22;6820;49.374;8.452;2023-07-29T21:49:33;22.81;99.99
13496;DHT22;6820;49.374;8.452;2023-07-29T21:53:35;22.72;99.99
13496;DHT22;6820;49.374;8.452;2023-07-29T21:57:36;22.67;99.99
13496;DHT22;6820;49.374;8.452;2023-07-29T22:01:38;22.60;99.99
13496;DHT22;6820;49.374;8.452;2023-07-29T22:05:39;22.51;99.99
13496;DHT22;6820;49.374;8.452;2023-07-29T22:09:41;22.45;99.99
13496;DHT22;6820;49.374;8.452;2023-07-29T22:13:43;22.44;99.99
13496;DHT22;6820;49.374;8.452;2023-07-29T22:17:44;22.36;99.99
13496;DHT22;6820;49.374;8.452;2023-07-29T22:21:46;22.29;99.99
13496;DHT22;6820;49.374;8.452;2023-07-29T22:30:00;22.17;99.99
13496;DHT22;6820;49.374;8.452;2023-07-29T22:34:01;22.15;99.99
13496;DHT22;6820;49.374;8.452;2023-07-29T22:38:04;22.11;99.99
13496;DHT22;6820;49.374;8.452;2023-07-29T22:42:05;22.12;99.99
13496;DHT22;6820;49.374;8.452;2023-07-29T22:46:07;22.11;99.99
13496;DHT22;6820;49.374;8.452;2023-07-29T22:50:09;22.12;99.99
13496;DHT22;6820;49.374;8.452;2023-07-29T22:54:11;22.04;99.99
13496;DHT22;6820;49.374;8.452;2023-07-29T22:58:12;22.02;99.99
13496;DHT22;6820;49.374;8.452;2023-07-29T23:02:14;21.93;99.99
13496;DHT22;6820;49.374;8.452;2023-07-29T23:06:16;21.93;99.99
13496;DHT22;6820;49.374;8.452;2023-07-29T23:10:17;21.89;99.99
13496;DHT22;6820;49.374;8.452;2023-07-29T23:14:19;21.89;99.99
13496;DHT22;6820;49.374;8.452;2023-07-29T23:18:21;21.86;99.99
13496;DHT22;6820;49.374;8.452;2023-07-29T23:22:22;21.85;99.99
13496;DHT22;6820;49.374;8.452;2023-07-29T23:26:24;21.82;99.99
13496;DHT22;6820;49.374;8.452;2023-07-29T23:30:25;21.74;99.99
13496;DHT22;6820;49.374;8.452;2023-07-29T23:34:27;21.70;99.99
13496;DHT22;6820;49.374;8.452;2023-07-29T23:38:29;21.63;99.99
13496;DHT22;6820;49.374;8.452;2023-07-29T23:42:31;21.64;99.99
13496;DHT22;6820;49.374;8.452;2023-07-29T23:46:33;21.55;99.99
13496;DHT22;6820;49.374;8.452;2023-07-29T23:50:34;21.52;99.99
13496;DHT22;6820;49.374;8.452;2023-07-29T23:54:36;21.51;99.99
13496;DHT22;6820;49.374;8.452;2023-07-29T23:58:37;21.53;99.99
